Time,TemperatureF,DewpointF,PressureIn,WindDirection,WindDirectionDegrees,WindSpeedMPH,WindSpeedGustMPH,Humidity,HourlyPrecipIn,Conditions,Clouds,dailyrainin,SoftwareType,DateUTC
2013-02-10 07:15:00,21.7,1.6,29.79,NW,315,0.0,1.0,41,0.00,,---,0.00,VWS V14.01,2013-02-10 14:15:00,
2013-02-10 07:27:00,19.8,0.9,29.81,NW,325,0.0,0.0,43,0.00,,---,0.00,VWS V14.01,2013-02-10 14:27:00,
2013-02-10 07:31:00,19.3,1.0,29.81,NW,325,0.0,1.0,44,0.00,,---,0.00,VWS V14.01,2013-02-10 14:31:00,
2013-02-10 07:36:00,19.1,1.3,29.82,NW,325,0.0,0.0,45,0.00,,---,0.00,VWS V14.01,2013-02-10 14:36:00,
2013-02-10 07:41:00,19.3,1.5,29.82,NW,325,0.0,0.0,45,0.00,,---,0.00,VWS V14.01,2013-02-10 14:41:00,
2013-02-10 07:46:00,19.7,1.8,29.83,NW,325,0.0,0.0,45,0.00,,---,0.00,VWS V14.01,2013-02-10 14:46:00,
2013-02-10 07:51:00,20.0,2.1,29.83,NW,325,0.0,0.0,45,0.00,,---,0.00,VWS V14.01,2013-02-10 14:51:00,
2013-02-10 07:56:00,20.5,3.0,29.81,NW,325,0.0,0.0,46,0.00,,---,0.00,VWS V14.01,2013-02-10 14:56:00,
2013-02-10 08:01:00,21.5,3.5,29.82,NW,325,0.0,0.0,45,0.00,,---,0.00,VWS V14.01,2013-02-10 15:01:00,
2013-02-10 08:06:00,22.7,3.6,29.82,NNW,329,2.0,3.0,43,0.00,,---,0.00,VWS V14.01,2013-02-10 15:06:00,
2013-02-10 08:11:00,23.4,3.7,29.83,NNW,334,1.0,1.0,42,0.00,,---,0.00,VWS V14.01,2013-02-10 15:11:00,
2013-02-10 08:16:00,23.6,3.4,29.81,NNW,336,3.0,3.0,41,0.00,,---,0.00,VWS V14.01,2013-02-10 15:16:00,
2013-02-10 08:21:00,23.9,3.6,29.81,North,360,0.0,1.0,41,0.00,,---,0.00,VWS V14.01,2013-02-10 15:21:00,
2013-02-10 08:26:00,24.5,4.2,29.81,North,360,1.0,1.0,41,0.00,,---,0.00,VWS V14.01,2013-02-10 15:26:00,
2013-02-10 08:31:00,25.1,3.1,29.82,North,9,0.0,1.0,38,0.00,,---,0.00,VWS V14.01,2013-02-10 15:31:00,
2013-02-10 08:36:00,25.4,3.3,29.82,North,10,0.0,0.0,38,0.00,,---,0.00,VWS V14.01,2013-02-10 15:36:00,
2013-02-10 08:41:00,26.2,3.5,29.81,North,11,0.0,0.0,37,0.00,,---,0.00,VWS V14.01,2013-02-10 15:41:00,
2013-02-10 08:46:00,26.2,3.5,29.81,North,11,0.0,0.0,37,0.00,,---,0.00,VWS V14.01,2013-02-10 15:46:00,
2013-02-10 08:51:00,26.0,3.3,29.81,NNE,20,2.0,4.0,37,0.00,,---,0.00,VWS V14.01,2013-02-10 15:51:00,
2013-02-10 08:56:00,25.7,3.0,29.81,NNE,21,1.0,2.0,37,0.00,,---,0.00,VWS V14.01,2013-02-10 15:56:00,
2013-02-10 09:01:00,25.6,3.5,29.81,NNE,21,0.0,4.0,38,0.00,,---,0.00,VWS V14.01,2013-02-10 16:01:00,
2013-02-10 09:06:00,25.5,3.4,29.82,NNE,21,0.0,2.0,38,0.00,,---,0.00,VWS V14.01,2013-02-10 16:06:00,
2013-02-10 09:11:00,25.7,3.0,29.82,NNE,21,0.0,2.0,37,0.00,,---,0.00,VWS V14.01,2013-02-10 16:11:00,
2013-02-10 09:16:00,26.2,3.5,29.82,NNE,21,0.0,0.0,37,0.00,,---,0.00,VWS V14.01,2013-02-10 16:16:00,
2013-02-10 09:21:00,26.9,2.9,29.81,NNE,21,0.0,0.0,35,0.00,,---,0.00,VWS V14.01,2013-02-10 16:21:00,
2013-02-10 09:26:00,27.1,2.5,29.81,NNE,21,1.0,1.0,34,0.00,,---,0.00,VWS V14.01,2013-02-10 16:26:00,
2013-02-10 09:31:00,27.1,2.5,29.81,NNE,21,0.0,0.0,34,0.00,,---,0.00,VWS V14.01,2013-02-10 16:31:00,
2013-02-10 09:36:00,27.1,1.8,29.81,NNE,21,0.0,0.0,33,0.00,,---,0.00,VWS V14.01,2013-02-10 16:36:00,
2013-02-10 09:41:00,26.8,2.2,29.81,NNE,21,0.0,0.0,34,0.00,,---,0.00,VWS V14.01,2013-02-10 16:41:00,
2013-02-10 09:46:00,26.8,2.8,29.81,NNE,22,0.0,0.0,35,0.00,,---,0.00,VWS V14.01,2013-02-10 16:46:00,
2013-02-10 09:51:00,27.2,3.2,29.82,NNE,22,2.0,2.0,35,0.00,,---,0.00,VWS V14.01,2013-02-10 16:51:00,
2013-02-10 09:56:00,27.2,3.2,29.82,NNE,30,0.0,0.0,35,0.00,,---,0.00,VWS V14.01,2013-02-10 16:56:00,
2013-02-10 10:01:00,27.2,2.6,29.81,NNE,30,0.0,0.0,34,0.00,,---,0.00,VWS V14.01,2013-02-10 17:01:00,
2013-02-10 10:06:00,27.4,2.1,29.83,NNE,30,0.0,0.0,33,0.00,,---,0.00,VWS V14.01,2013-02-10 17:06:00,
2013-02-10 10:11:00,27.8,3.1,29.84,NNE,30,0.0,0.0,34,0.00,,---,0.00,VWS V14.01,2013-02-10 17:11:00,
2013-02-10 10:16:00,27.6,1.6,29.84,ENE,68,0.0,0.0,32,0.00,,---,0.00,VWS V14.01,2013-02-10 17:16:00,
2013-02-10 10:21:00,27.6,1.6,29.84,ENE,68,0.0,0.0,32,0.00,,---,0.00,VWS V14.01,2013-02-10 17:21:00,
2013-02-10 10:26:00,27.7,1.7,29.84,ENE,68,0.0,0.0,32,0.00,,---,0.00,VWS V14.01,2013-02-10 17:26:00,
2013-02-10 10:31:00,28.3,2.2,29.84,ENE,68,0.0,2.0,32,0.00,,---,0.00,VWS V14.01,2013-02-10 17:31:00,
2013-02-10 10:36:00,28.4,2.3,29.84,ENE,68,0.0,2.0,32,0.00,,---,0.00,VWS V14.01,2013-02-10 17:36:00,
2013-02-10 10:41:00,28.1,2.0,29.84,ENE,67,0.0,0.0,32,0.00,,---,0.00,VWS V14.01,2013-02-10 17:41:00,
2013-02-10 10:46:00,28.2,2.1,29.84,ENE,64,1.0,2.0,32,0.00,,---,0.00,VWS V14.01,2013-02-10 17:46:00,
2013-02-10 10:51:00,28.2,2.1,29.84,ENE,64,0.0,4.0,32,0.00,,---,0.00,VWS V14.01,2013-02-10 17:51:00,
2013-02-10 10:56:00,28.5,2.4,29.84,NE,56,5.0,5.0,32,0.00,,---,0.00,VWS V14.01,2013-02-10 17:56:00,
2013-02-10 11:01:00,28.3,1.5,29.84,West,261,4.0,4.0,31,0.00,,---,0.00,VWS V14.01,2013-02-10 18:01:00,
2013-02-10 11:06:00,28.5,2.4,29.84,West,262,0.0,5.0,32,0.00,,---,0.00,VWS V14.01,2013-02-10 18:06:00,
2013-02-10 11:11:00,29.4,2.5,29.82,WSW,254,0.0,0.0,31,0.00,,---,0.00,VWS V14.01,2013-02-10 18:11:00,
2013-02-10 11:16:00,30.0,3.0,29.82,WSW,257,0.0,0.0,31,0.00,,---,0.00,VWS V14.01,2013-02-10 18:16:00,
2013-02-10 11:21:00,30.1,2.4,29.82,SE,134,1.0,4.0,30,0.00,,---,0.00,VWS V14.01,2013-02-10 18:21:00,
2013-02-10 11:26:00,29.6,2.0,29.82,NNW,338,0.0,2.0,30,0.00,,---,0.00,VWS V14.01,2013-02-10 18:26:00,
2013-02-10 11:31:00,29.9,2.2,29.82,NNW,339,2.0,3.0,30,0.00,,---,0.00,VWS V14.01,2013-02-10 18:31:00,
2013-02-10 11:36:00,29.8,2.2,29.82,NE,53,1.0,5.0,30,0.00,,---,0.00,VWS V14.01,2013-02-10 18:36:00,
2013-02-10 11:42:00,30.2,2.5,29.81,ENE,64,3.0,3.0,30,0.00,,---,0.00,VWS V14.01,2013-02-10 18:42:00,
2013-02-10 11:47:00,30.6,2.1,29.79,NNW,333,6.0,8.0,29,0.00,,---,0.00,VWS V14.01,2013-02-10 18:47:00,
2013-02-10 11:52:00,30.8,1.5,29.80,NNW,333,1.0,2.0,28,0.00,,---,0.00,VWS V14.01,2013-02-10 18:52:00,
2013-02-10 11:57:00,30.6,1.4,29.79,ESE,123,3.0,3.0,28,0.00,,---,0.00,VWS V14.01,2013-02-10 18:57:00,
2013-02-10 12:02:00,30.8,0.8,29.79,SSW,210,7.0,7.0,27,0.00,,---,0.00,VWS V14.01,2013-02-10 19:02:00,
2013-02-10 12:07:00,30.8,1.5,29.77,West,259,7.0,8.0,28,0.00,,---,0.00,VWS V14.01,2013-02-10 19:07:00,
2013-02-10 12:12:00,30.3,-0.5,29.78,West,269,6.0,7.0,26,0.00,,---,0.00,VWS V14.01,2013-02-10 19:12:00,
2013-02-10 12:17:00,30.0,1.6,29.77,NNW,340,7.0,8.0,29,0.00,,---,0.00,VWS V14.01,2013-02-10 19:17:00,
2013-02-10 12:22:00,30.5,1.3,29.77,North,9,0.0,1.0,28,0.00,,---,0.00,VWS V14.01,2013-02-10 19:22:00,
2013-02-10 12:27:00,31.9,1.7,29.75,North,360,1.0,1.0,27,0.00,,---,0.00,VWS V14.01,2013-02-10 19:27:00,
2013-02-10 12:32:00,32.7,3.2,29.76,North,360,4.0,4.0,28,0.00,,---,0.00,VWS V14.01,2013-02-10 19:32:00,
2013-02-10 12:37:00,32.7,0.8,29.76,WNW,295,9.0,10.0,25,0.00,,---,0.00,VWS V14.01,2013-02-10 19:37:00,
2013-02-10 12:42:00,32.3,-0.4,29.75,WSW,258,11.0,18.0,24,0.00,,---,0.00,VWS V14.01,2013-02-10 19:42:00,
2013-02-10 12:47:00,31.7,-0.9,29.75,NW,313,12.0,12.0,24,0.00,,---,0.00,VWS V14.01,2013-02-10 19:47:00,
2013-02-10 12:52:00,31.2,-1.4,29.77,West,260,2.0,8.0,24,0.00,,---,0.00,VWS V14.01,2013-02-10 19:52:00,
2013-02-10 12:57:00,31.5,-0.3,29.75,West,269,6.0,13.0,25,0.00,,---,0.00,VWS V14.01,2013-02-10 19:57:00,
2013-02-10 13:02:00,30.8,-2.6,29.77,West,277,5.0,9.0,23,0.00,,---,0.00,VWS V14.01,2013-02-10 20:02:00,
2013-02-10 13:07:00,31.0,-1.5,29.77,WSW,251,4.0,10.0,24,0.00,,---,0.00,VWS V14.01,2013-02-10 20:07:00,
2013-02-10 13:12:00,31.5,-0.3,29.77,WNW,286,7.0,11.0,25,0.00,,---,0.00,VWS V14.01,2013-02-10 20:12:00,
2013-02-10 13:17:00,31.7,-0.9,29.77,NW,316,9.0,9.0,24,0.00,,---,0.00,VWS V14.01,2013-02-10 20:17:00,
2013-02-10 13:22:00,31.7,-0.9,29.77,NW,316,6.0,9.0,24,0.00,,---,0.00,VWS V14.01,2013-02-10 20:22:00,
2013-02-10 13:27:00,31.2,-2.3,29.77,NNW,340,5.0,9.0,23,0.00,,---,0.00,VWS V14.01,2013-02-10 20:27:00,
2013-02-10 13:32:00,30.9,-0.8,29.77,WSW,257,7.0,10.0,25,0.00,,---,0.00,VWS V14.01,2013-02-10 20:32:00,
2013-02-10 13:37:00,31.3,1.2,29.77,NW,307,5.0,10.0,27,0.00,,---,0.00,VWS V14.01,2013-02-10 20:37:00,
2013-02-10 13:42:00,31.4,1.3,29.77,West,267,5.0,7.0,27,0.00,,---,0.00,VWS V14.01,2013-02-10 20:42:00,
2013-02-10 13:47:00,31.0,0.2,29.77,WNW,295,2.0,6.0,26,0.00,,---,0.00,VWS V14.01,2013-02-10 20:47:00,
2013-02-10 13:52:00,30.5,0.5,29.77,NW,313,4.0,5.0,27,0.00,,---,0.00,VWS V14.01,2013-02-10 20:52:00,
2013-02-10 13:57:00,31.0,3.2,29.77,West,261,13.0,19.0,30,0.00,,---,0.00,VWS V14.01,2013-02-10 20:57:00,
2013-02-10 14:02:00,31.1,3.3,29.77,WSW,248,14.0,14.0,30,0.00,,---,0.00,VWS V14.01,2013-02-10 21:02:00,
2013-02-10 14:07:00,30.7,3.0,29.79,WNW,291,6.0,9.0,30,0.00,,---,0.00,VWS V14.01,2013-02-10 21:07:00,
2013-02-10 14:12:00,30.4,4.1,29.79,SSW,198,4.0,11.0,32,0.00,,---,0.00,VWS V14.01,2013-02-10 21:12:00,
2013-02-10 14:17:00,31.4,5.0,29.79,SW,219,9.0,13.0,32,0.00,,---,0.00,VWS V14.01,2013-02-10 21:17:00,
2013-02-10 14:22:00,31.5,3.7,29.79,SW,236,8.0,12.0,30,0.00,,---,0.00,VWS V14.01,2013-02-10 21:22:00,
2013-02-10 14:27:00,31.5,3.7,29.79,WSW,249,12.0,13.0,30,0.00,,---,0.00,VWS V14.01,2013-02-10 21:27:00,
2013-02-10 14:32:00,31.4,2.8,29.79,West,264,8.0,20.0,29,0.00,,---,0.00,VWS V14.01,2013-02-10 21:32:00,
2013-02-10 14:37:00,31.4,3.6,29.79,West,261,8.0,9.0,30,0.00,,---,0.00,VWS V14.01,2013-02-10 21:37:00,
2013-02-10 14:42:00,30.7,5.0,29.79,West,266,8.0,15.0,33,0.00,,---,0.00,VWS V14.01,2013-02-10 21:42:00,
2013-02-10 14:47:00,30.3,6.6,29.81,West,259,11.0,15.0,36,0.00,,---,0.00,VWS V14.01,2013-02-10 21:47:00,
2013-02-10 14:52:00,29.9,5.0,29.81,WNW,284,6.0,13.0,34,0.00,,---,0.00,VWS V14.01,2013-02-10 21:52:00,
2013-02-10 14:57:00,30.7,5.0,29.80,West,265,9.0,13.0,33,0.00,,---,0.00,VWS V14.01,2013-02-10 21:57:00,
2013-02-10 15:02:00,30.6,6.2,29.80,WSW,255,11.0,11.0,35,0.00,,---,0.00,VWS V14.01,2013-02-10 22:02:00,
2013-02-10 15:08:00,31.0,6.6,29.80,West,259,5.0,12.0,35,0.00,,---,0.00,VWS V14.01,2013-02-10 22:08:00,
2013-02-10 15:13:00,31.7,5.9,29.80,SW,217,12.0,14.0,33,0.00,,---,0.00,VWS V14.01,2013-02-10 22:13:00,
2013-02-10 15:18:00,31.4,5.0,29.80,SW,229,9.0,14.0,32,0.00,,---,0.00,VWS V14.01,2013-02-10 22:18:00,
2013-02-10 15:23:00,32.0,6.8,29.81,West,264,10.0,11.0,34,0.00,,---,0.00,VWS V14.01,2013-02-10 22:23:00,
2013-02-10 15:28:00,31.7,7.2,29.80,WSW,250,7.0,15.0,35,0.00,,---,0.00,VWS V14.01,2013-02-10 22:28:00,
2013-02-10 15:33:00,31.4,6.9,29.81,WSW,244,10.0,12.0,35,0.00,,---,0.00,VWS V14.01,2013-02-10 22:33:00,
2013-02-10 15:38:00,30.9,7.1,29.81,West,263,10.0,12.0,36,0.00,,---,0.00,VWS V14.01,2013-02-10 22:38:00,
2013-02-10 15:43:00,31.2,6.8,29.82,West,271,12.0,13.0,35,0.00,,---,0.00,VWS V14.01,2013-02-10 22:43:00,
2013-02-10 15:48:00,31.6,7.1,29.82,West,273,8.0,12.0,35,0.00,,---,0.00,VWS V14.01,2013-02-10 22:48:00,
2013-02-10 15:53:00,31.6,5.1,29.82,West,276,5.0,7.0,32,0.00,,---,0.00,VWS V14.01,2013-02-10 22:53:00,
2013-02-10 15:58:00,31.5,5.1,29.82,WSW,254,5.0,9.0,32,0.00,,---,0.00,VWS V14.01,2013-02-10 22:58:00,
2013-02-10 16:03:00,31.7,4.5,29.82,SW,232,7.0,10.0,31,0.00,,---,0.00,VWS V14.01,2013-02-10 23:03:00,
2013-02-10 16:08:00,31.4,3.6,29.83,SW,226,9.0,19.0,30,0.00,,---,0.00,VWS V14.01,2013-02-10 23:08:00,
2013-02-10 16:13:00,30.9,3.1,29.83,SW,216,6.0,13.0,30,0.00,,---,0.00,VWS V14.01,2013-02-10 23:13:00,
2013-02-10 16:18:00,30.8,3.8,29.83,SSW,205,8.0,15.0,31,0.00,,---,0.00,VWS V14.01,2013-02-10 23:18:00,
2013-02-10 16:23:00,30.5,4.8,29.83,WSW,240,9.0,9.0,33,0.00,,---,0.00,VWS V14.01,2013-02-10 23:23:00,
2013-02-10 16:28:00,30.7,5.0,29.83,SW,229,5.0,11.0,33,0.00,,---,0.00,VWS V14.01,2013-02-10 23:28:00,
2013-02-10 16:33:00,31.0,4.6,29.83,SW,233,5.0,7.0,32,0.00,,---,0.00,VWS V14.01,2013-02-10 23:33:00,
2013-02-10 16:38:00,31.2,4.8,29.83,SSW,213,6.0,8.0,32,0.00,,---,0.00,VWS V14.01,2013-02-10 23:38:00,
2013-02-10 16:43:00,31.2,4.1,29.83,WSW,237,5.0,9.0,31,0.00,,---,0.00,VWS V14.01,2013-02-10 23:43:00,
2013-02-10 16:48:00,31.0,3.9,29.83,SW,231,8.0,14.0,31,0.00,,---,0.00,VWS V14.01,2013-02-10 23:48:00,
2013-02-10 16:53:00,30.3,3.3,29.86,SSW,211,4.0,8.0,31,0.00,,---,0.00,VWS V14.01,2013-02-10 23:53:00,
2013-02-10 16:58:00,29.7,4.1,29.86,SW,229,5.0,7.0,33,0.00,,---,0.00,VWS V14.01,2013-02-10 23:58:00,
2013-02-10 17:03:00,29.2,4.3,29.86,SW,233,2.0,6.0,34,0.00,,---,0.00,VWS V14.01,2013-02-11 00:03:00,
2013-02-10 17:08:00,28.9,3.4,29.88,WSW,241,6.0,11.0,33,0.00,,---,0.00,VWS V14.01,2013-02-11 00:08:00,
2013-02-10 17:13:00,28.8,2.0,29.88,SSW,198,3.0,12.0,31,0.00,,---,0.00,VWS V14.01,2013-02-11 00:13:00,
2013-02-10 17:18:00,28.8,2.0,29.89,WSW,240,2.0,8.0,31,0.00,,---,0.00,VWS V14.01,2013-02-11 00:18:00,
2013-02-10 17:23:00,28.7,2.6,29.89,SW,233,2.0,7.0,32,0.00,,---,0.00,VWS V14.01,2013-02-11 00:23:00,
2013-02-10 17:28:00,28.5,3.1,29.90,SW,234,2.0,6.0,33,0.00,,---,0.00,VWS V14.01,2013-02-11 00:28:00,
2013-02-10 17:33:00,28.4,3.0,29.91,SW,234,2.0,3.0,33,0.00,,---,0.00,VWS V14.01,2013-02-11 00:33:00,
2013-02-10 17:38:00,28.2,3.5,29.91,SW,233,0.0,4.0,34,0.00,,---,0.00,VWS V14.01,2013-02-11 00:38:00,
2013-02-10 17:43:00,28.1,3.4,29.91,SW,234,0.0,1.0,34,0.00,,---,0.00,VWS V14.01,2013-02-11 00:43:00,
2013-02-10 17:48:00,28.0,3.3,29.92,SW,234,0.0,1.0,34,0.00,,---,0.00,VWS V14.01,2013-02-11 00:48:00,
2013-02-10 17:53:00,27.9,3.2,29.92,SW,234,2.0,2.0,34,0.00,,---,0.00,VWS V14.01,2013-02-11 00:53:00,
2013-02-10 17:58:00,27.6,3.5,29.93,SW,234,3.0,3.0,35,0.00,,---,0.00,VWS V14.01,2013-02-11 00:58:00,
2013-02-10 18:03:00,27.5,3.5,29.93,SW,219,7.0,11.0,35,0.00,,---,0.00,VWS V14.01,2013-02-11 01:03:00,
2013-02-10 18:08:00,27.6,3.5,29.92,SW,219,2.0,4.0,35,0.00,,---,0.00,VWS V14.01,2013-02-11 01:08:00,
2013-02-10 18:13:00,27.6,3.5,29.92,SW,219,1.0,3.0,35,0.00,,---,0.00,VWS V14.01,2013-02-11 01:13:00,
2013-02-10 18:18:00,27.4,10.3,29.91,SSW,209,0.0,3.0,48,0.00,,---,0.00,VWS V14.01,2013-02-11 01:18:00,
2013-02-10 18:23:00,27.1,11.4,29.92,SSE,160,0.0,2.0,51,0.00,,---,0.00,VWS V14.01,2013-02-11 01:23:00,
2013-02-10 18:28:00,26.7,12.3,29.92,South,186,1.0,8.0,54,0.00,,---,0.00,VWS V14.01,2013-02-11 01:28:00,
2013-02-10 18:34:00,26.2,13.1,29.94,SE,137,1.0,4.0,57,0.00,,---,0.00,VWS V14.01,2013-02-11 01:34:00,
2013-02-10 18:39:00,25.8,14.2,29.94,SE,139,1.0,5.0,61,0.00,,---,0.00,VWS V14.01,2013-02-11 01:39:00,
2013-02-10 18:44:00,25.2,14.8,29.94,SE,129,1.0,5.0,64,0.00,,---,0.00,VWS V14.01,2013-02-11 01:44:00,
2013-02-10 18:49:00,24.8,14.7,29.95,SE,140,0.0,4.0,65,0.00,,---,0.00,VWS V14.01,2013-02-11 01:49:00,
2013-02-10 18:54:00,24.6,14.9,29.95,SE,138,0.0,4.0,66,0.00,,---,0.00,VWS V14.01,2013-02-11 01:54:00,
2013-02-10 18:59:00,24.5,15.1,29.96,SE,129,0.0,4.0,67,0.00,,---,0.00,VWS V14.01,2013-02-11 01:59:00,
2013-02-10 19:04:00,24.5,15.1,29.96,SE,143,1.0,2.0,67,0.00,,---,0.00,VWS V14.01,2013-02-11 02:04:00,
2013-02-10 19:09:00,24.7,15.0,29.96,South,188,3.0,8.0,66,0.00,,---,0.00,VWS V14.01,2013-02-11 02:09:00,
2013-02-10 19:14:00,24.9,15.2,29.96,South,169,1.0,8.0,66,0.00,,---,0.00,VWS V14.01,2013-02-11 02:14:00,
2013-02-10 19:19:00,25.0,14.9,29.96,South,184,0.0,7.0,65,0.00,,---,0.00,VWS V14.01,2013-02-11 02:19:00,
2013-02-10 19:24:00,24.9,14.8,29.96,SE,140,0.0,6.0,65,0.00,,---,0.00,VWS V14.01,2013-02-11 02:24:00,
2013-02-10 19:29:00,24.9,14.8,29.97,South,184,5.0,9.0,65,0.00,,---,0.00,VWS V14.01,2013-02-11 02:29:00,
2013-02-10 19:34:00,24.8,15.1,29.97,South,180,2.0,4.0,66,0.00,,---,0.00,VWS V14.01,2013-02-11 02:34:00,
2013-02-10 19:39:00,24.7,15.0,29.96,South,179,0.0,6.0,66,0.00,,---,0.00,VWS V14.01,2013-02-11 02:39:00,
2013-02-10 19:44:00,24.5,14.8,29.97,SSW,192,0.0,5.0,66,0.00,,---,0.00,VWS V14.01,2013-02-11 02:44:00,
2013-02-10 19:49:00,24.3,14.9,29.98,SSE,150,0.0,3.0,67,0.00,,---,0.00,VWS V14.01,2013-02-11 02:49:00,
2013-02-10 19:54:00,24.1,15.1,29.98,South,175,0.0,5.0,68,0.00,,---,0.00,VWS V14.01,2013-02-11 02:54:00,
2013-02-10 19:59:00,23.9,15.2,29.98,SE,133,0.0,5.0,69,0.00,,---,0.00,VWS V14.01,2013-02-11 02:59:00,
2013-02-10 20:04:00,23.7,15.0,29.99,SE,146,0.0,5.0,69,0.00,,---,0.00,VWS V14.01,2013-02-11 03:04:00,
2013-02-10 20:09:00,23.6,14.9,29.95,SE,136,2.0,3.0,69,0.00,,---,0.00,VWS V14.01,2013-02-11 03:09:00,
2013-02-10 20:14:00,23.5,14.8,29.95,SE,130,0.0,4.0,69,0.00,,---,0.00,VWS V14.01,2013-02-11 03:14:00,
2013-02-10 20:19:00,23.4,14.8,29.95,SE,137,1.0,6.0,69,0.00,,---,0.00,VWS V14.01,2013-02-11 03:19:00,
2013-02-10 20:24:00,23.3,14.6,29.97,SSE,159,0.0,9.0,69,0.00,,---,0.00,VWS V14.01,2013-02-11 03:24:00,
2013-02-10 20:29:00,23.3,15.0,29.98,SSE,163,0.0,3.0,70,0.00,,---,0.00,VWS V14.01,2013-02-11 03:29:00,
2013-02-10 20:34:00,23.1,14.8,29.98,SSE,153,1.0,3.0,70,0.00,,---,0.00,VWS V14.01,2013-02-11 03:34:00,
2013-02-10 20:39:00,22.9,14.6,29.98,SSE,159,0.0,5.0,70,0.00,,---,0.00,VWS V14.01,2013-02-11 03:39:00,
2013-02-10 20:44:00,22.8,14.8,29.98,South,169,3.0,7.0,71,0.00,,---,0.00,VWS V14.01,2013-02-11 03:44:00,
2013-02-10 20:49:00,22.6,14.6,29.99,SE,144,2.0,7.0,71,0.00,,---,0.00,VWS V14.01,2013-02-11 03:49:00,
2013-02-10 20:54:00,22.5,14.9,29.99,SE,144,0.0,4.0,72,0.00,,---,0.00,VWS V14.01,2013-02-11 03:54:00,
2013-02-10 20:59:00,22.2,14.9,29.99,SE,146,0.0,6.0,73,0.00,,---,0.00,VWS V14.01,2013-02-11 03:59:00,
2013-02-10 21:04:00,22.1,14.8,29.99,SE,141,1.0,4.0,73,0.00,,---,0.00,VWS V14.01,2013-02-11 04:04:00,
2013-02-10 21:09:00,22.0,15.0,29.99,SE,136,0.0,5.0,74,0.00,,---,0.00,VWS V14.01,2013-02-11 04:09:00,
2013-02-10 21:14:00,21.9,14.9,30.00,SSE,148,2.0,4.0,74,0.00,,---,0.00,VWS V14.01,2013-02-11 04:14:00,
2013-02-10 21:19:00,21.7,14.7,30.00,SE,134,0.0,5.0,74,0.00,,---,0.00,VWS V14.01,2013-02-11 04:19:00,
2013-02-10 21:24:00,21.7,15.0,30.00,SE,134,0.0,5.0,75,0.00,,---,0.00,VWS V14.01,2013-02-11 04:24:00,
2013-02-10 21:29:00,21.6,14.6,29.99,South,185,0.0,4.0,74,0.00,,---,0.00,VWS V14.01,2013-02-11 04:29:00,
2013-02-10 21:34:00,21.6,14.6,30.00,SSE,157,0.0,5.0,74,0.00,,---,0.00,VWS V14.01,2013-02-11 04:34:00,
2013-02-10 21:39:00,21.6,14.6,30.00,SE,143,0.0,5.0,74,0.00,,---,0.00,VWS V14.01,2013-02-11 04:39:00,
2013-02-10 21:44:00,21.7,14.7,30.00,SE,144,1.0,6.0,74,0.00,,---,0.00,VWS V14.01,2013-02-11 04:44:00,
2013-02-10 21:49:00,21.7,14.7,30.00,SSE,155,0.0,7.0,74,0.00,,---,0.00,VWS V14.01,2013-02-11 04:49:00,
2013-02-10 21:54:00,21.6,14.9,30.00,SE,139,3.0,4.0,75,0.00,,---,0.00,VWS V14.01,2013-02-11 04:54:00,